sensor_id;sensor_type;location;lat;lon;timestamp;P1;durP1;ratioP1;P2;durP2;ratioP2
26042;SDS011;13818;52.156;5.382;2023-08-30T00:02:14;4.07;;;2.30;;
26042;SDS011;13818;52.156;5.382;2023-08-30T00:04:46;4.07;;;2.03;;
26042;SDS011;13818;52.156;5.382;2023-08-30T00:07:13;4.00;;;2.10;;
26042;SDS011;13818;52.156;5.382;2023-08-30T00:09:42;4.05;;;2.17;;
26042;SDS011;13818;52.156;5.382;2023-08-30T00:12:09;3.03;;;1.80;;
26042;SDS011;13818;52.156;5.382;2023-08-30T00:14:36;3.50;;;2.10;;
26042;SDS011;13818;52.156;5.382;2023-08-30T00:17:03;4.57;;;2.05;;
26042;SDS011;13818;52.156;5.382;2023-08-30T00:19:30;2.92;;;1.75;;
26042;SDS011;13818;52.156;5.382;2023-08-30T00:21:57;4.80;;;2.25;;
26042;SDS011;13818;52.156;5.382;2023-08-30T00:24:26;3.53;;;2.15;;
26042;SDS011;13818;52.156;5.382;2023-08-30T00:26:57;4.22;;;2.28;;
26042;SDS011;13818;52.156;5.382;2023-08-30T00:29:26;2.97;;;2.08;;
26042;SDS011;13818;52.156;5.382;2023-08-30T00:31:55;5.38;;;2.33;;
26042;SDS011;13818;52.156;5.382;2023-08-30T00:34:22;4.28;;;2.45;;
26042;SDS011;13818;52.156;5.382;2023-08-30T00:36:55;3.60;;;2.10;;
26042;SDS011;13818;52.156;5.382;2023-08-30T00:39:22;3.58;;;2.22;;
26042;SDS011;13818;52.156;5.382;2023-08-30T00:44:21;7.22;;;2.95;;
26042;SDS011;13818;52.156;5.382;2023-08-30T00:46:50;4.45;;;2.42;;
26042;SDS011;13818;52.156;5.382;2023-08-30T00:49:21;5.82;;;2.35;;
26042;SDS011;13818;52.156;5.382;2023-08-30T00:51:48;5.30;;;2.08;;
26042;SDS011;13818;52.156;5.382;2023-08-30T00:54:18;2.95;;;2.03;;
26042;SDS011;13818;52.156;5.382;2023-08-30T00:56:45;5.03;;;2.42;;
26042;SDS011;13818;52.156;5.382;2023-08-30T00:59:15;6.25;;;2.47;;
26042;SDS011;13818;52.156;5.382;2023-08-30T01:01:47;4.22;;;2.30;;
26042;SDS011;13818;52.156;5.382;2023-08-30T01:04:14;3.75;;;2.05;;
26042;SDS011;13818;52.156;5.382;2023-08-30T01:06:46;5.13;;;2.20;;
26042;SDS011;13818;52.156;5.382;2023-08-30T01:09:14;6.95;;;2.13;;
26042;SDS011;13818;52.156;5.382;2023-08-30T01:11:43;4.60;;;2.35;;
26042;SDS011;13818;52.156;5.382;2023-08-30T01:14:15;4.78;;;2.22;;
26042;SDS011;13818;52.156;5.382;2023-08-30T01:16:51;4.32;;;2.10;;
26042;SDS011;13818;52.156;5.382;2023-08-30T01:19:26;9.38;;;2.60;;
26042;SDS011;13818;52.156;5.382;2023-08-30T01:22:16;4.18;;;2.38;;
26042;SDS011;13818;52.156;5.382;2023-08-30T01:24:56;4.70;;;2.55;;
26042;SDS011;13818;52.156;5.382;2023-08-30T01:27:31;6.78;;;2.88;;
26042;SDS011;13818;52.156;5.382;2023-08-30T01:30:02;5.05;;;2.47;;
26042;SDS011;13818;52.156;5.382;2023-08-30T01:32:33;4.53;;;2.30;;
26042;SDS011;13818;52.156;5.382;2023-08-30T01:35:04;3.80;;;2.30;;
26042;SDS011;13818;52.156;5.382;2023-08-30T01:37:33;4.45;;;2.20;;
26042;SDS011;13818;52.156;5.382;2023-08-30T01:40:00;5.40;;;2.28;;
26042;SDS011;13818;52.156;5.382;2023-08-30T01:42:31;5.75;;;2.75;;
26042;SDS011;13818;52.156;5.382;2023-08-30T01:45:05;7.93;;;2.78;;
26042;SDS011;13818;52.156;5.382;2023-08-30T01:47:36;6.03;;;2.25;;
26042;SDS011;13818;52.156;5.382;2023-08-30T01:50:07;3.88;;;2.17;;
26042;SDS011;13818;52.156;5.382;2023-08-30T01:52:39;5.57;;;2.42;;
26042;SDS011;13818;52.156;5.382;2023-08-30T01:55:07;3.88;;;2.38;;
26042;SDS011;13818;52.156;5.382;2023-08-30T01:57:40;3.30;;;1.95;;
26042;SDS011;13818;52.156;5.382;2023-08-30T02:00:09;5.90;;;2.42;;
26042;SDS011;13818;52.156;5.382;2023-08-30T02:02:38;4.95;;;2.90;;
26042;SDS011;13818;52.156;5.382;2023-08-30T02:05:05;4.75;;;2.55;;
26042;SDS011;13818;52.156;5.382;2023-08-30T02:07:34;6.35;;;2.80;;
26042;SDS011;13818;52.156;5.382;2023-08-30T02:10:09;4.93;;;2.83;;
26042;SDS011;13818;52.156;5.382;2023-08-30T02:12:41;5.32;;;2.72;;
26042;SDS011;13818;52.156;5.382;2023-08-30T02:15:12;4.97;;;2.42;;
26042;SDS011;13818;52.156;5.382;2023-08-30T02:20:12;5.80;;;2.95;;
26042;SDS011;13818;52.156;5.382;2023-08-30T02:22:42;5.45;;;2.90;;
26042;SDS011;13818;52.156;5.382;2023-08-30T02:25:09;6.45;;;3.25;;
26042;SDS011;13818;52.156;5.382;2023-08-30T02:27:36;5.38;;;3.20;;
26042;SDS011;13818;52.156;5.382;2023-08-30T02:30:05;6.60;;;3.30;;
26042;SDS011;13818;52.156;5.382;2023-08-30T02:32:32;4.18;;;2.53;;
26042;SDS011;13818;52.156;5.382;2023-08-30T02:35:02;5.60;;;2.67;;
26042;SDS011;13818;52.156;5.382;2023-08-30T02:37:35;6.10;;;2.92;;
26042;SDS011;13818;52.156;5.382;2023-08-30T02:40:02;6.25;;;2.90;;
26042;SDS011;13818;52.156;5.382;2023-08-30T02:42:29;6.20;;;3.30;;
26042;SDS011;13818;52.156;5.382;2023-08-30T02:44:58;5.80;;;2.95;;
26042;SDS011;13818;52.156;5.382;2023-08-30T02:47:29;6.22;;;2.90;;
26042;SDS011;13818;52.156;5.382;2023-08-30T02:49:56;8.60;;;3.28;;
26042;SDS011;13818;52.156;5.382;2023-08-30T02:52:25;5.28;;;2.70;;
26042;SDS011;13818;52.156;5.382;2023-08-30T02:54:54;8.10;;;2.83;;
26042;SDS011;13818;52.156;5.382;2023-08-30T02:57:23;7.10;;;2.72;;
26042;SDS011;13818;52.156;5.382;2023-08-30T02:59:51;9.40;;;3.65;;
26042;SDS011;13818;52.156;5.382;2023-08-30T03:02:20;7.95;;;3.50;;
26042;SDS011;13818;52.156;5.382;2023-08-30T03:04:54;7.80;;;3.60;;
26042;SDS011;13818;52.156;5.382;2023-08-30T03:07:21;5.35;;;2.97;;
26042;SDS011;13818;52.156;5.382;2023-08-30T03:09:54;8.13;;;3.00;;
26042;SDS011;13818;52.156;5.382;2023-08-30T03:12:21;7.07;;;3.83;;
26042;SDS011;13818;52.156;5.382;2023-08-30T03:14:48;5.50;;;3.38;;
26042;SDS011;13818;52.156;5.382;2023-08-30T03:17:15;5.47;;;2.75;;
26042;SDS011;13818;52.156;5.382;2023-08-30T03:19:44;10.07;;;3.42;;
26042;SDS011;13818;52.156;5.382;2023-08-30T03:22:12;6.97;;;3.67;;
26042;SDS011;13818;52.156;5.382;2023-08-30T03:27:06;7.82;;;3.05;;
26042;SDS011;13818;52.156;5.382;2023-08-30T03:29:33;8.05;;;3.47;;
26042;SDS011;13818;52.156;5.382;2023-08-30T03:32:05;9.25;;;4.20;;
26042;SDS011;13818;52.156;5.382;2023-08-30T03:34:32;8.23;;;3.65;;
26042;SDS011;13818;52.156;5.382;2023-08-30T03:36:59;9.57;;;3.85;;
26042;SDS011;13818;52.156;5.382;2023-08-30T03:39:29;9.93;;;3.42;;
26042;SDS011;13818;52.156;5.382;2023-08-30T03:41:59;8.18;;;3.13;;
26042;SDS011;13818;52.156;5.382;2023-08-30T03:44:26;7.13;;;3.13;;
26042;SDS011;13818;52.156;5.382;2023-08-30T03:46:55;7.25;;;3.50;;
26042;SDS011;13818;52.156;5.382;2023-08-30T03:49:22;7.05;;;3.42;;
26042;SDS011;13818;52.156;5.382;2023-08-30T03:51:54;10.52;;;3.55;;
26042;SDS011;13818;52.156;5.382;2023-08-30T03:54:21;8.85;;;3.92;;
26042;SDS011;13818;52.156;5.382;2023-08-30T03:56:51;11.13;;;4.13;;
26042;SDS011;13818;52.156;5.382;2023-08-30T03:59:22;9.25;;;3.35;;
26042;SDS011;13818;52.156;5.382;2023-08-30T04:01:52;6.75;;;3.83;;
26042;SDS011;13818;52.156;5.382;2023-08-30T04:04:19;6.53;;;3.58;;
26042;SDS011;13818;52.156;5.382;2023-08-30T04:06:46;9.77;;;4.00;;
26042;SDS011;13818;52.156;5.382;2023-08-30T04:09:13;7.47;;;3.67;;
26042;SDS011;13818;52.156;5.382;2023-08-30T04:11:43;8.60;;;3.40;;
26042;SDS011;13818;52.156;5.382;2023-08-30T04:14:13;10.48;;;3.83;;
26042;SDS011;13818;52.156;5.382;2023-08-30T04:16:41;6.88;;;3.42;;
26042;SDS011;13818;52.156;5.382;2023-08-30T04:19:11;8.80;;;3.80;;
26042;SDS011;13818;52.156;5.382;2023-08-30T04:21:38;6.57;;;3.13;;
26042;SDS011;13818;52.156;5.382;2023-08-30T04:24:06;6.47;;;3.55;;
26042;SDS011;13818;52.156;5.382;2023-08-30T04:26:33;5.53;;;2.38;;
26042;SDS011;13818;52.156;5.382;2023-08-30T04:29:00;11.25;;;4.10;;
26042;SDS011;13818;52.156;5.382;2023-08-30T04:31:31;8.23;;;3.60;;
26042;SDS011;13818;52.156;5.382;2023-08-30T04:34:01;8.85;;;3.63;;
26042;SDS011;13818;52.156;5.382;2023-08-30T04:36:31;7.00;;;3.80;;
26042;SDS011;13818;52.156;5.382;2023-08-30T04:39:02;7.95;;;3.42;;
26042;SDS011;13818;52.156;5.382;2023-08-30T04:41:31;8.60;;;3.47;;
26042;SDS011;13818;52.156;5.382;2023-08-30T04:43:59;11.18;;;4.05;;
26042;SDS011;13818;52.156;5.382;2023-08-30T04:46:26;10.52;;;3.65;;
26042;SDS011;13818;52.156;5.382;2023-08-30T04:48:55;6.82;;;3.80;;
26042;SDS011;13818;52.156;5.382;2023-08-30T04:51:22;10.07;;;3.78;;
26042;SDS011;13818;52.156;5.382;2023-08-30T04:53:49;10.25;;;4.05;;
26042;SDS011;13818;52.156;5.382;2023-08-30T04:56:16;9.60;;;4.00;;
26042;SDS011;13818;52.156;5.382;2023-08-30T04:58:44;7.65;;;3.90;;
26042;SDS011;13818;52.156;5.382;2023-08-30T05:01:15;8.48;;;3.58;;
26042;SDS011;13818;52.156;5.382;2023-08-30T05:03:45;7.63;;;3.80;;
26042;SDS011;13818;52.156;5.382;2023-08-30T05:06:18;7.50;;;3.45;;
26042;SDS011;13818;52.156;5.382;2023-08-30T05:08:45;5.57;;;3.22;;
26042;SDS011;13818;52.156;5.382;2023-08-30T05:11:13;10.60;;;4.00;;
26042;SDS011;13818;52.156;5.382;2023-08-30T05:13:43;10.68;;;3.67;;
26042;SDS011;13818;52.156;5.382;2023-08-30T05:16:12;10.23;;;4.32;;
26042;SDS011;13818;52.156;5.382;2023-08-30T05:18:42;6.80;;;3.45;;
26042;SDS011;13818;52.156;5.382;2023-08-30T05:21:09;8.60;;;3.78;;
26042;SDS011;13818;52.156;5.382;2023-08-30T05:23:38;6.88;;;3.10;;
26042;SDS011;13818;52.156;5.382;2023-08-30T05:26:07;5.68;;;2.95;;
26042;SDS011;13818;52.156;5.382;2023-08-30T05:28:34;11.13;;;4.13;;
26042;SDS011;13818;52.156;5.382;2023-08-30T05:31:03;8.13;;;3.38;;
26042;SDS011;13818;52.156;5.382;2023-08-30T05:33:30;7.03;;;3.10;;
26042;SDS011;13818;52.156;5.382;2023-08-30T05:36:01;6.43;;;2.83;;
26042;SDS011;13818;52.156;5.382;2023-08-30T05:38:32;7.38;;;3.20;;
26042;SDS011;13818;52.156;5.382;2023-08-30T05:41:04;7.20;;;3.42;;
26042;SDS011;13818;52.156;5.382;2023-08-30T05:43:40;6.50;;;2.85;;
26042;SDS011;13818;52.156;5.382;2023-08-30T05:46:12;5.97;;;3.25;;
26042;SDS011;13818;52.156;5.382;2023-08-30T05:48:45;6.45;;;3.13;;
26042;SDS011;13818;52.156;5.382;2023-08-30T05:51:20;8.35;;;3.80;;
26042;SDS011;13818;52.156;5.382;2023-08-30T05:53:47;11.07;;;4.30;;
26042;SDS011;13818;52.156;5.382;2023-08-30T05:56:21;11.75;;;3.63;;
26042;SDS011;13818;52.156;5.382;2023-08-30T06:03:45;8.68;;;3.63;;
26042;SDS011;13818;52.156;5.382;2023-08-30T06:06:12;6.68;;;3.20;;
26042;SDS011;13818;52.156;5.382;2023-08-30T06:08:41;8.82;;;3.85;;
26042;SDS011;13818;52.156;5.382;2023-08-30T06:11:13;6.53;;;3.42;;
26042;SDS011;13818;52.156;5.382;2023-08-30T06:13:44;8.95;;;4.13;;
26042;SDS011;13818;52.156;5.382;2023-08-30T06:16:14;11.25;;;3.85;;
26042;SDS011;13818;52.156;5.382;2023-08-30T06:18:45;6.55;;;3.47;;
26042;SDS011;13818;52.156;5.382;2023-08-30T06:21:15;6.35;;;3.10;;
26042;SDS011;13818;52.156;5.382;2023-08-30T06:23:45;9.27;;;3.78;;
26042;SDS011;13818;52.156;5.382;2023-08-30T06:26:13;5.75;;;3.05;;
26042;SDS011;13818;52.156;5.382;2023-08-30T06:28:45;7.97;;;3.90;;
26042;SDS011;13818;52.156;5.382;2023-08-30T06:31:12;8.10;;;3.65;;
26042;SDS011;13818;52.156;5.382;2023-08-30T06:33:41;6.93;;;3.83;;
26042;SDS011;13818;52.156;5.382;2023-08-30T06:36:09;8.68;;;3.83;;
26042;SDS011;13818;52.156;5.382;2023-08-30T06:38:37;7.07;;;3.60;;
26042;SDS011;13818;52.156;5.382;2023-08-30T06:41:07;7.82;;;3.42;;
26042;SDS011;13818;52.156;5.382;2023-08-30T06:43:34;8.18;;;3.92;;
26042;SDS011;13818;52.156;5.382;2023-08-30T06:46:06;6.05;;;3.20;;
26042;SDS011;13818;52.156;5.382;2023-08-30T06:48:34;8.40;;;3.88;;
26042;SDS011;13818;52.156;5.382;2023-08-30T06:51:01;11.63;;;4.10;;
26042;SDS011;13818;52.156;5.382;2023-08-30T06:53:30;5.93;;;3.45;;
26042;SDS011;13818;52.156;5.382;2023-08-30T06:55:58;8.57;;;3.83;;
26042;SDS011;13818;52.156;5.382;2023-08-30T06:58:25;10.20;;;4.07;;
26042;SDS011;13818;52.156;5.382;2023-08-30T07:00:56;9.45;;;3.90;;
26042;SDS011;13818;52.156;5.382;2023-08-30T07:03:31;10.18;;;3.55;;
26042;SDS011;13818;52.156;5.382;2023-08-30T07:05:58;7.38;;;3.75;;
26042;SDS011;13818;52.156;5.382;2023-08-30T07:08:25;8.77;;;3.78;;
26042;SDS011;13818;52.156;5.382;2023-08-30T07:10:52;10.60;;;3.55;;
26042;SDS011;13818;52.156;5.382;2023-08-30T07:13:24;9.00;;;3.88;;
26042;SDS011;13818;52.156;5.382;2023-08-30T07:15:51;5.75;;;3.40;;
26042;SDS011;13818;52.156;5.382;2023-08-30T07:18:18;9.20;;;3.85;;
26042;SDS011;13818;52.156;5.382;2023-08-30T07:20:50;6.75;;;3.33;;
26042;SDS011;13818;52.156;5.382;2023-08-30T07:23:19;7.05;;;3.58;;
26042;SDS011;13818;52.156;5.382;2023-08-30T07:25:46;9.52;;;4.32;;
26042;SDS011;13818;52.156;5.382;2023-08-30T07:28:17;8.85;;;3.75;;
26042;SDS011;13818;52.156;5.382;2023-08-30T07:30:44;7.22;;;3.95;;
26042;SDS011;13818;52.156;5.382;2023-08-30T07:33:11;8.52;;;3.95;;
26042;SDS011;13818;52.156;5.382;2023-08-30T07:35:38;8.20;;;3.58;;
26042;SDS011;13818;52.156;5.382;2023-08-30T07:38:07;7.35;;;3.80;;
26042;SDS011;13818;52.156;5.382;2023-08-30T07:40:34;7.38;;;3.88;;
26042;SDS011;13818;52.156;5.382;2023-08-30T07:43:01;8.07;;;3.67;;
26042;SDS011;13818;52.156;5.382;2023-08-30T07:45:31;7.07;;;3.60;;
26042;SDS011;13818;52.156;5.382;2023-08-30T07:47:58;7.88;;;3.03;;
26042;SDS011;13818;52.156;5.382;2023-08-30T07:50:26;5.47;;;2.67;;
26042;SDS011;13818;52.156;5.382;2023-08-30T07:52:53;6.13;;;3.50;;
26042;SDS011;13818;52.156;5.382;2023-08-30T07:55:25;5.20;;;3.30;;
26042;SDS011;13818;52.156;5.382;2023-08-30T07:57:52;7.38;;;2.95;;
26042;SDS011;13818;52.156;5.382;2023-08-30T08:00:19;5.75;;;3.30;;
26042;SDS011;13818;52.156;5.382;2023-08-30T08:02:48;7.00;;;3.10;;
26042;SDS011;13818;52.156;5.382;2023-08-30T08:05:17;5.22;;;2.47;;
26042;SDS011;13818;52.156;5.382;2023-08-30T08:07:51;5.53;;;3.05;;
26042;SDS011;13818;52.156;5.382;2023-08-30T08:10:19;5.93;;;2.63;;
26042;SDS011;13818;52.156;5.382;2023-08-30T08:12:48;4.03;;;2.40;;
26042;SDS011;13818;52.156;5.382;2023-08-30T08:15:21;5.50;;;2.85;;
26042;SDS011;13818;52.156;5.382;2023-08-30T08:17:48;8.80;;;2.92;;
26042;SDS011;13818;52.156;5.382;2023-08-30T08:20:15;8.32;;;2.45;;
26042;SDS011;13818;52.156;5.382;2023-08-30T08:22:42;8.35;;;2.90;;
26042;SDS011;13818;52.156;5.382;2023-08-30T08:25:09;6.28;;;3.35;;
26042;SDS011;13818;52.156;5.382;2023-08-30T08:27:36;7.97;;;2.90;;
26042;SDS011;13818;52.156;5.382;2023-08-30T08:30:12;6.75;;;2.95;;
26042;SDS011;13818;52.156;5.382;2023-08-30T08:32:40;6.65;;;2.67;;
26042;SDS011;13818;52.156;5.382;2023-08-30T08:35:10;6.50;;;3.05;;
26042;SDS011;13818;52.156;5.382;2023-08-30T08:37:37;5.13;;;2.70;;
26042;SDS011;13818;52.156;5.382;2023-08-30T08:40:04;4.13;;;2.20;;
26042;SDS011;13818;52.156;5.382;2023-08-30T08:42:36;3.72;;;2.10;;
26042;SDS011;13818;52.156;5.382;2023-08-30T08:45:06;5.53;;;2.50;;
26042;SDS011;13818;52.156;5.382;2023-08-30T08:47:37;4.85;;;2.42;;
26042;SDS011;13818;52.156;5.382;2023-08-30T08:50:05;3.88;;;1.95;;
26042;SDS011;13818;52.156;5.382;2023-08-30T08:52:39;4.43;;;2.42;;
26042;SDS011;13818;52.156;5.382;2023-08-30T08:55:08;3.78;;;2.17;;
26042;SDS011;13818;52.156;5.382;2023-08-30T08:57:37;3.47;;;2.20;;
26042;SDS011;13818;52.156;5.382;2023-08-30T09:00:06;5.93;;;2.60;;
26042;SDS011;13818;52.156;5.382;2023-08-30T09:02:34;4.78;;;2.83;;
26042;SDS011;13818;52.156;5.382;2023-08-30T09:05:08;6.97;;;2.92;;
26042;SDS011;13818;52.156;5.382;2023-08-30T09:07:36;4.07;;;2.20;;
26042;SDS011;13818;52.156;5.382;2023-08-30T09:10:04;3.22;;;1.73;;
26042;SDS011;13818;52.156;5.382;2023-08-30T09:12:32;4.53;;;2.65;;
26042;SDS011;13818;52.156;5.382;2023-08-30T09:14:59;4.95;;;2.40;;
26042;SDS011;13818;52.156;5.382;2023-08-30T09:17:34;5.70;;;2.47;;
26042;SDS011;13818;52.156;5.382;2023-08-30T09:20:07;4.82;;;2.63;;
26042;SDS011;13818;52.156;5.382;2023-08-30T09:22:36;7.25;;;2.55;;
26042;SDS011;13818;52.156;5.382;2023-08-30T09:25:03;3.10;;;1.75;;
26042;SDS011;13818;52.156;5.382;2023-08-30T09:27:32;3.95;;;2.15;;
26042;SDS011;13818;52.156;5.382;2023-08-30T09:29:59;7.10;;;2.35;;
26042;SDS011;13818;52.156;5.382;2023-08-30T09:32:26;3.70;;;2.33;;
26042;SDS011;13818;52.156;5.382;2023-08-30T09:34:54;5.57;;;2.80;;
26042;SDS011;13818;52.156;5.382;2023-08-30T09:37:22;3.58;;;1.90;;
26042;SDS011;13818;52.156;5.382;2023-08-30T09:39:51;3.60;;;2.03;;
26042;SDS011;13818;52.156;5.382;2023-08-30T09:42:18;2.58;;;1.83;;
26042;SDS011;13818;52.156;5.382;2023-08-30T09:44:51;4.40;;;2.53;;
26042;SDS011;13818;52.156;5.382;2023-08-30T09:47:24;7.10;;;2.78;;
26042;SDS011;13818;52.156;5.382;2023-08-30T09:49:53;4.30;;;2.58;;
26042;SDS011;13818;52.156;5.382;2023-08-30T09:52:26;4.72;;;2.40;;
26042;SDS011;13818;52.156;5.382;2023-08-30T09:54:58;4.90;;;2.65;;
26042;SDS011;13818;52.156;5.382;2023-08-30T09:57:31;4.25;;;2.72;;
26042;SDS011;13818;52.156;5.382;2023-08-30T09:59:58;5.32;;;2.67;;
26042;SDS011;13818;52.156;5.382;2023-08-30T10:02:29;6.65;;;3.13;;
26042;SDS011;13818;52.156;5.382;2023-08-30T10:04:57;4.38;;;3.33;;
26042;SDS011;13818;52.156;5.382;2023-08-30T10:07:26;5.32;;;3.45;;
26042;SDS011;13818;52.156;5.382;2023-08-30T10:09:53;5.68;;;3.05;;
26042;SDS011;13818;52.156;5.382;2023-08-30T10:12:21;9.35;;;3.47;;
26042;SDS011;13818;52.156;5.382;2023-08-30T10:14:51;5.53;;;3.30;;
26042;SDS011;13818;52.156;5.382;2023-08-30T10:17:18;6.55;;;3.65;;
26042;SDS011;13818;52.156;5.382;2023-08-30T10:19:50;9.05;;;3.83;;
26042;SDS011;13818;52.156;5.382;2023-08-30T10:22:21;7.43;;;4.75;;
26042;SDS011;13818;52.156;5.382;2023-08-30T10:24:52;6.05;;;4.07;;
26042;SDS011;13818;52.156;5.382;2023-08-30T10:29:52;7.30;;;3.30;;
26042;SDS011;13818;52.156;5.382;2023-08-30T10:32:21;6.88;;;3.75;;
26042;SDS011;13818;52.156;5.382;2023-08-30T10:34:49;5.63;;;2.95;;
26042;SDS011;13818;52.156;5.382;2023-08-30T10:37:23;5.35;;;3.13;;
26042;SDS011;13818;52.156;5.382;2023-08-30T10:39:58;4.93;;;2.83;;
26042;SDS011;13818;52.156;5.382;2023-08-30T10:42:29;5.05;;;3.13;;
26042;SDS011;13818;52.156;5.382;2023-08-30T10:44:58;7.47;;;3.22;;
26042;SDS011;13818;52.156;5.382;2023-08-30T10:47:28;5.72;;;2.97;;
26042;SDS011;13818;52.156;5.382;2023-08-30T10:50:03;5.22;;;2.15;;
26042;SDS011;13818;52.156;5.382;2023-08-30T10:52:34;3.72;;;2.63;;
26042;SDS011;13818;52.156;5.382;2023-08-30T10:55:06;3.42;;;2.10;;
26042;SDS011;13818;52.156;5.382;2023-08-30T10:57:38;3.78;;;1.63;;
26042;SDS011;13818;52.156;5.382;2023-08-30T11:00:09;3.50;;;1.48;;
26042;SDS011;13818;52.156;5.382;2023-08-30T11:02:47;5.90;;;1.52;;
26042;SDS011;13818;52.156;5.382;2023-08-30T11:05:15;3.30;;;1.60;;
26042;SDS011;13818;52.156;5.382;2023-08-30T11:10:12;4.22;;;1.48;;
26042;SDS011;13818;52.156;5.382;2023-08-30T11:12:40;5.38;;;1.38;;
26042;SDS011;13818;52.156;5.382;2023-08-30T11:15:07;5.57;;;1.50;;
26042;SDS011;13818;52.156;5.382;2023-08-30T11:17:36;6.07;;;1.33;;
26042;SDS011;13818;52.156;5.382;2023-08-30T11:20:06;2.47;;;1.55;;
26042;SDS011;13818;52.156;5.382;2023-08-30T11:22:34;4.18;;;1.70;;
26042;SDS011;13818;52.156;5.382;2023-08-30T11:25:09;4.07;;;1.15;;
26042;SDS011;13818;52.156;5.382;2023-08-30T11:27:38;2.90;;;1.40;;
26042;SDS011;13818;52.156;5.382;2023-08-30T11:30:06;2.90;;;1.20;;
26042;SDS011;13818;52.156;5.382;2023-08-30T11:32:34;2.38;;;0.95;;
26042;SDS011;13818;52.156;5.382;2023-08-30T11:35:02;2.45;;;1.00;;
26042;SDS011;13818;52.156;5.382;2023-08-30T11:37:30;2.97;;;1.13;;
26042;SDS011;13818;52.156;5.382;2023-08-30T11:40:01;3.50;;;1.55;;
26042;SDS011;13818;52.156;5.382;2023-08-30T11:42:34;3.22;;;1.60;;
26042;SDS011;13818;52.156;5.382;2023-08-30T11:45:07;2.50;;;0.95;;
26042;SDS011;13818;52.156;5.382;2023-08-30T11:47:34;3.15;;;1.20;;
26042;SDS011;13818;52.156;5.382;2023-08-30T11:50:01;3.08;;;1.02;;
26042;SDS011;13818;52.156;5.382;2023-08-30T11:52:31;1.55;;;1.20;;
26042;SDS011;13818;52.156;5.382;2023-08-30T11:55:03;10.43;;;1.52;;
26042;SDS011;13818;52.156;5.382;2023-08-30T11:57:32;2.88;;;1.50;;
26042;SDS011;13818;52.156;5.382;2023-08-30T12:00:08;6.05;;;1.58;;
26042;SDS011;13818;52.156;5.382;2023-08-30T12:02:38;4.45;;;1.45;;
26042;SDS011;13818;52.156;5.382;2023-08-30T12:05:12;4.95;;;1.52;;
26042;SDS011;13818;52.156;5.382;2023-08-30T12:07:40;2.67;;;1.27;;
26042;SDS011;13818;52.156;5.382;2023-08-30T12:10:09;1.75;;;0.90;;
26042;SDS011;13818;52.156;5.382;2023-08-30T12:12:44;3.22;;;1.33;;
26042;SDS011;13818;52.156;5.382;2023-08-30T12:15:13;3.95;;;1.20;;
26042;SDS011;13818;52.156;5.382;2023-08-30T12:17:42;2.88;;;1.02;;
26042;SDS011;13818;52.156;5.382;2023-08-30T12:20:14;3.03;;;1.13;;
26042;SDS011;13818;52.156;5.382;2023-08-30T12:22:42;2.58;;;0.95;;
26042;SDS011;13818;52.156;5.382;2023-08-30T12:25:18;3.97;;;0.98;;
26042;SDS011;13818;52.156;5.382;2023-08-30T12:27:46;1.52;;;0.60;;
26042;SDS011;13818;52.156;5.382;2023-08-30T12:30:15;3.95;;;0.85;;
26042;SDS011;13818;52.156;5.382;2023-08-30T12:32:43;5.28;;;1.52;;
26042;SDS011;13818;52.156;5.382;2023-08-30T12:35:12;1.55;;;0.70;;
26042;SDS011;13818;52.156;5.382;2023-08-30T12:37:39;3.33;;;1.08;;
26042;SDS011;13818;52.156;5.382;2023-08-30T12:40:10;1.52;;;0.65;;
26042;SDS011;13818;52.156;5.382;2023-08-30T12:42:47;2.47;;;0.93;;
26042;SDS011;13818;52.156;5.382;2023-08-30T12:45:19;3.10;;;1.10;;
26042;SDS011;13818;52.156;5.382;2023-08-30T12:47:46;3.30;;;0.75;;
26042;SDS011;13818;52.156;5.382;2023-08-30T12:50:13;7.68;;;1.25;;
26042;SDS011;13818;52.156;5.382;2023-08-30T12:52:40;7.53;;;0.88;;
26042;SDS011;13818;52.156;5.382;2023-08-30T12:55:10;2.13;;;0.80;;
26042;SDS011;13818;52.156;5.382;2023-08-30T12:57:37;2.83;;;0.90;;
26042;SDS011;13818;52.156;5.382;2023-08-30T13:00:04;2.47;;;1.20;;
26042;SDS011;13818;52.156;5.382;2023-08-30T13:05:03;7.97;;;1.10;;
26042;SDS011;13818;52.156;5.382;2023-08-30T13:07:33;2.80;;;0.95;;
26042;SDS011;13818;52.156;5.382;2023-08-30T13:10:03;2.35;;;0.98;;
26042;SDS011;13818;52.156;5.382;2023-08-30T13:12:30;4.35;;;1.00;;
26042;SDS011;13818;52.156;5.382;2023-08-30T13:15:00;5.03;;;1.02;;
26042;SDS011;13818;52.156;5.382;2023-08-30T13:17:27;1.67;;;0.82;;
26042;SDS011;13818;52.156;5.382;2023-08-30T13:19:56;5.28;;;1.00;;
26042;SDS011;13818;52.156;5.382;2023-08-30T13:22:23;8.85;;;1.05;;
26042;SDS011;13818;52.156;5.382;2023-08-30T13:24:55;5.72;;;1.40;;
26042;SDS011;13818;52.156;5.382;2023-08-30T13:27:23;5.20;;;1.35;;
26042;SDS011;13818;52.156;5.382;2023-08-30T13:29:53;2.08;;;0.80;;
26042;SDS011;13818;52.156;5.382;2023-08-30T13:32:20;5.82;;;1.00;;
26042;SDS011;13818;52.156;5.382;2023-08-30T13:34:52;3.47;;;1.00;;
26042;SDS011;13818;52.156;5.382;2023-08-30T13:37:21;2.78;;;0.80;;
26042;SDS011;13818;52.156;5.382;2023-08-30T13:39:48;1.73;;;0.80;;
26042;SDS011;13818;52.156;5.382;2023-08-30T13:42:15;3.80;;;1.02;;
26042;SDS011;13818;52.156;5.382;2023-08-30T13:44:46;3.78;;;1.00;;
26042;SDS011;13818;52.156;5.382;2023-08-30T13:47:13;2.08;;;0.68;;
26042;SDS011;13818;52.156;5.382;2023-08-30T13:49:41;4.90;;;0.77;;
26042;SDS011;13818;52.156;5.382;2023-08-30T13:52:11;1.40;;;0.80;;
26042;SDS011;13818;52.156;5.382;2023-08-30T13:54:39;1.45;;;0.82;;
26042;SDS011;13818;52.156;5.382;2023-08-30T13:57:06;5.90;;;1.15;;
26042;SDS011;13818;52.156;5.382;2023-08-30T13:59:35;3.33;;;0.98;;
26042;SDS011;13818;52.156;5.382;2023-08-30T14:02:03;3.25;;;0.88;;
26042;SDS011;13818;52.156;5.382;2023-08-30T14:04:30;4.32;;;1.13;;
26042;SDS011;13818;52.156;5.382;2023-08-30T14:06:59;3.53;;;1.50;;
26042;SDS011;13818;52.156;5.382;2023-08-30T14:09:28;5.28;;;1.90;;
26042;SDS011;13818;52.156;5.382;2023-08-30T14:11:59;1.95;;;1.10;;
26042;SDS011;13818;52.156;5.382;2023-08-30T14:14:29;2.97;;;0.60;;
26042;SDS011;13818;52.156;5.382;2023-08-30T14:16:56;2.33;;;0.63;;
26042;SDS011;13818;52.156;5.382;2023-08-30T14:19:24;4.05;;;0.73;;
26042;SDS011;13818;52.156;5.382;2023-08-30T14:21:51;1.75;;;0.60;;
26042;SDS011;13818;52.156;5.382;2023-08-30T14:24:21;3.53;;;0.80;;
26042;SDS011;13818;52.156;5.382;2023-08-30T14:26:48;1.10;;;0.47;;
26042;SDS011;13818;52.156;5.382;2023-08-30T14:29:19;3.75;;;0.90;;
26042;SDS011;13818;52.156;5.382;2023-08-30T14:31:49;4.43;;;0.90;;
26042;SDS011;13818;52.156;5.382;2023-08-30T14:34:16;2.95;;;1.02;;
26042;SDS011;13818;52.156;5.382;2023-08-30T14:36:43;4.50;;;1.23;;
26042;SDS011;13818;52.156;5.382;2023-08-30T14:39:17;3.47;;;0.80;;
26042;SDS011;13818;52.156;5.382;2023-08-30T14:41:44;3.75;;;1.17;;
26042;SDS011;13818;52.156;5.382;2023-08-30T14:44:15;5.80;;;1.27;;
26042;SDS011;13818;52.156;5.382;2023-08-30T14:46:42;3.30;;;1.02;;
26042;SDS011;13818;52.156;5.382;2023-08-30T14:49:09;3.10;;;1.35;;
26042;SDS011;13818;52.156;5.382;2023-08-30T14:51:36;1.50;;;0.80;;
26042;SDS011;13818;52.156;5.382;2023-08-30T14:54:03;2.75;;;0.73;;
26042;SDS011;13818;52.156;5.382;2023-08-30T14:56:30;4.35;;;0.90;;
26042;SDS011;13818;52.156;5.382;2023-08-30T14:59:02;1.90;;;0.80;;
26042;SDS011;13818;52.156;5.382;2023-08-30T15:01:31;1.00;;;0.80;;
26042;SDS011;13818;52.156;5.382;2023-08-30T15:03:58;3.53;;;0.77;;
26042;SDS011;13818;52.156;5.382;2023-08-30T15:06:25;3.20;;;0.80;;
26042;SDS011;13818;52.156;5.382;2023-08-30T15:08:52;4.68;;;1.75;;
26042;SDS011;13818;52.156;5.382;2023-08-30T15:11:19;4.95;;;2.72;;
26042;SDS011;13818;52.156;5.382;2023-08-30T15:13:46;3.65;;;1.13;;
26042;SDS011;13818;52.156;5.382;2023-08-30T15:16:15;4.32;;;1.02;;
26042;SDS011;13818;52.156;5.382;2023-08-30T15:18:43;2.70;;;0.80;;
26042;SDS011;13818;52.156;5.382;2023-08-30T15:21:10;3.63;;;0.90;;